sensor_id;sensor_type;location;lat;lon;timestamp;temperature;humidity
17831;DHT22;9040;51.332;12.406;2022-09-09T00:01:52;17.30;99.90
17831;DHT22;9040;51.332;12.406;2022-09-09T00:04:26;17.20;99.90
17831;DHT22;9040;51.332;12.406;2022-09-09T00:07:01;17.30;99.90
17831;DHT22;9040;51.332;12.406;2022-09-09T00:09:32;17.20;99.90
17831;DHT22;9040;51.332;12.406;2022-09-09T00:12:11;17.20;99.90
17831;DHT22;9040;51.332;12.406;2022-09-09T00:14:45;17.10;99.90
17831;DHT22;9040;51.332;12.406;2022-09-09T00:17:21;17.20;99.90
17831;DHT22;9040;51.332;12.406;2022-09-09T00:19:56;17.20;99.90
17831;DHT22;9040;51.332;12.406;2022-09-09T00:22:29;17.20;99.90
17831;DHT22;9040;51.332;12.406;2022-09-09T00:25:04;17.20;99.90
17831;DHT22;9040;51.332;12.406;2022-09-09T00:27:40;17.20;99.90
17831;DHT22;9040;51.332;12.406;2022-09-09T00:30:16;17.20;99.90
17831;DHT22;9040;51.332;12.406;2022-09-09T00:32:45;17.20;99.90
17831;DHT22;9040;51.332;12.406;2022-09-09T00:35:17;17.20;99.90
17831;DHT22;9040;51.332;12.406;2022-09-09T00:37:46;17.10;99.90
17831;DHT22;9040;51.332;12.406;2022-09-09T00:40:22;17.10;99.90
17831;DHT22;9040;51.332;12.406;2022-09-09T00:42:54;17.00;99.90
17831;DHT22;9040;51.332;12.406;2022-09-09T00:45:51;17.00;99.90
17831;DHT22;9040;51.332;12.406;2022-09-09T00:48:23;17.10;99.90
17831;DHT22;9040;51.332;12.406;2022-09-09T00:50:55;17.10;99.90
17831;DHT22;9040;51.332;12.406;2022-09-09T00:53:32;17.10;99.90
17831;DHT22;9040;51.332;12.406;2022-09-09T00:56:10;17.00;99.90
17831;DHT22;9040;51.332;12.406;2022-09-09T00:58:42;17.00;99.90
17831;DHT22;9040;51.332;12.406;2022-09-09T01:01:10;17.00;99.90
17831;DHT22;9040;51.332;12.406;2022-09-09T01:03:41;17.00;99.90
17831;DHT22;9040;51.332;12.406;2022-09-09T01:06:17;17.00;99.90
17831;DHT22;9040;51.332;12.406;2022-09-09T01:09:04;17.00;99.90
17831;DHT22;9040;51.332;12.406;2022-09-09T01:11:40;17.00;99.90
17831;DHT22;9040;51.332;12.406;2022-09-09T01:14:16;16.90;99.90
17831;DHT22;9040;51.332;12.406;2022-09-09T01:16:47;16.90;99.90
17831;DHT22;9040;51.332;12.406;2022-09-09T01:19:20;16.90;99.90
17831;DHT22;9040;51.332;12.406;2022-09-09T01:21:55;16.90;99.90
17831;DHT22;9040;51.332;12.406;2022-09-09T01:24:27;17.00;99.90
17831;DHT22;9040;51.332;12.406;2022-09-09T01:27:01;16.90;99.90
17831;DHT22;9040;51.332;12.406;2022-09-09T01:29:29;16.90;99.90
17831;DHT22;9040;51.332;12.406;2022-09-09T01:31:57;16.90;99.90
17831;DHT22;9040;51.332;12.406;2022-09-09T01:34:27;16.90;99.90
17831;DHT22;9040;51.332;12.406;2022-09-09T01:36:59;17.00;99.90
17831;DHT22;9040;51.332;12.406;2022-09-09T01:39:27;17.00;99.90
17831;DHT22;9040;51.332;12.406;2022-09-09T01:41:55;16.90;99.90
17831;DHT22;9040;51.332;12.406;2022-09-09T01:44:25;17.00;99.90
17831;DHT22;9040;51.332;12.406;2022-09-09T01:46:52;17.00;99.90
17831;DHT22;9040;51.332;12.406;2022-09-09T01:49:19;17.00;99.90
17831;DHT22;9040;51.332;12.406;2022-09-09T01:51:49;17.00;99.90
17831;DHT22;9040;51.332;12.406;2022-09-09T01:54:16;17.00;99.90
17831;DHT22;9040;51.332;12.406;2022-09-09T01:56:50;17.00;99.90
17831;DHT22;9040;51.332;12.406;2022-09-09T01:59:32;17.00;99.90
17831;DHT22;9040;51.332;12.406;2022-09-09T02:02:10;16.90;99.90
17831;DHT22;9040;51.332;12.406;2022-09-09T02:04:40;16.90;99.90
17831;DHT22;9040;51.332;12.406;2022-09-09T02:07:15;16.90;99.90
17831;DHT22;9040;51.332;12.406;2022-09-09T02:09:47;16.90;99.90
17831;DHT22;9040;51.332;12.406;2022-09-09T02:12:18;16.90;99.90
17831;DHT22;9040;51.332;12.406;2022-09-09T02:14:52;16.90;99.90
17831;DHT22;9040;51.332;12.406;2022-09-09T02:17:25;16.90;99.90
17831;DHT22;9040;51.332;12.406;2022-09-09T02:19:57;16.90;99.90
17831;DHT22;9040;51.332;12.406;2022-09-09T02:22:28;16.80;99.90
17831;DHT22;9040;51.332;12.406;2022-09-09T02:25:00;16.80;99.90
17831;DHT22;9040;51.332;12.406;2022-09-09T02:27:27;16.80;99.90
17831;DHT22;9040;51.332;12.406;2022-09-09T02:29:57;16.70;99.90
17831;DHT22;9040;51.332;12.406;2022-09-09T02:32:24;16.70;99.90
17831;DHT22;9040;51.332;12.406;2022-09-09T02:34:55;16.70;99.90
17831;DHT22;9040;51.332;12.406;2022-09-09T02:37:27;16.70;99.90
17831;DHT22;9040;51.332;12.406;2022-09-09T02:39:55;16.70;99.90
17831;DHT22;9040;51.332;12.406;2022-09-09T02:42:22;16.60;99.90
17831;DHT22;9040;51.332;12.406;2022-09-09T02:44:49;16.60;99.90
17831;DHT22;9040;51.332;12.406;2022-09-09T02:47:30;16.60;99.90
17831;DHT22;9040;51.332;12.406;2022-09-09T02:50:07;16.50;99.90
17831;DHT22;9040;51.332;12.406;2022-09-09T02:52:43;16.50;99.90
17831;DHT22;9040;51.332;12.406;2022-09-09T02:55:17;16.50;99.90
17831;DHT22;9040;51.332;12.406;2022-09-09T02:57:47;16.50;99.90
17831;DHT22;9040;51.332;12.406;2022-09-09T03:00:15;16.50;99.90
17831;DHT22;9040;51.332;12.406;2022-09-09T03:02:43;16.50;99.90
17831;DHT22;9040;51.332;12.406;2022-09-09T03:05:10;16.50;99.90
17831;DHT22;9040;51.332;12.406;2022-09-09T03:07:38;16.50;99.90
17831;DHT22;9040;51.332;12.406;2022-09-09T03:10:07;16.50;99.90
17831;DHT22;9040;51.332;12.406;2022-09-09T03:12:36;16.50;99.90
17831;DHT22;9040;51.332;12.406;2022-09-09T03:15:03;16.50;99.90
17831;DHT22;9040;51.332;12.406;2022-09-09T03:17:30;16.50;99.90
17831;DHT22;9040;51.332;12.406;2022-09-09T03:19:58;16.40;99.90
17831;DHT22;9040;51.332;12.406;2022-09-09T03:22:25;16.40;99.90
17831;DHT22;9040;51.332;12.406;2022-09-09T03:24:52;16.40;99.90
17831;DHT22;9040;51.332;12.406;2022-09-09T03:27:19;16.40;99.90
17831;DHT22;9040;51.332;12.406;2022-09-09T03:29:46;16.40;99.90
17831;DHT22;9040;51.332;12.406;2022-09-09T03:32:16;16.40;99.90
17831;DHT22;9040;51.332;12.406;2022-09-09T03:34:44;16.40;99.90
17831;DHT22;9040;51.332;12.406;2022-09-09T03:37:16;16.40;99.90
17831;DHT22;9040;51.332;12.406;2022-09-09T03:39:43;16.40;99.90
17831;DHT22;9040;51.332;12.406;2022-09-09T03:42:12;16.40;99.90
17831;DHT22;9040;51.332;12.406;2022-09-09T03:44:44;16.40;99.90
17831;DHT22;9040;51.332;12.406;2022-09-09T03:47:13;16.30;99.90
17831;DHT22;9040;51.332;12.406;2022-09-09T03:49:40;16.30;99.90
17831;DHT22;9040;51.332;12.406;2022-09-09T03:52:08;16.30;99.90
17831;DHT22;9040;51.332;12.406;2022-09-09T03:54:36;16.40;99.90
17831;DHT22;9040;51.332;12.406;2022-09-09T03:57:04;16.40;99.90
17831;DHT22;9040;51.332;12.406;2022-09-09T03:59:31;16.30;99.90
17831;DHT22;9040;51.332;12.406;2022-09-09T04:01:58;16.30;99.90
17831;DHT22;9040;51.332;12.406;2022-09-09T04:04:25;16.40;99.90
17831;DHT22;9040;51.332;12.406;2022-09-09T04:06:52;16.40;99.90
17831;DHT22;9040;51.332;12.406;2022-09-09T04:09:19;16.40;99.90
17831;DHT22;9040;51.332;12.406;2022-09-09T04:11:47;16.30;99.90
17831;DHT22;9040;51.332;12.406;2022-09-09T04:14:15;16.30;99.90
17831;DHT22;9040;51.332;12.406;2022-09-09T04:16:42;16.20;99.90
17831;DHT22;9040;51.332;12.406;2022-09-09T04:19:10;16.20;99.90
17831;DHT22;9040;51.332;12.406;2022-09-09T04:21:38;16.20;99.90
17831;DHT22;9040;51.332;12.406;2022-09-09T04:24:06;16.20;99.90
17831;DHT22;9040;51.332;12.406;2022-09-09T04:26:33;16.20;99.90
17831;DHT22;9040;51.332;12.406;2022-09-09T04:29:03;16.20;99.90
17831;DHT22;9040;51.332;12.406;2022-09-09T04:31:30;16.20;99.90
17831;DHT22;9040;51.332;12.406;2022-09-09T04:33:57;16.20;99.90
17831;DHT22;9040;51.332;12.406;2022-09-09T04:36:24;16.20;99.90
17831;DHT22;9040;51.332;12.406;2022-09-09T04:38:52;16.20;99.90
17831;DHT22;9040;51.332;12.406;2022-09-09T04:41:19;16.20;99.90
17831;DHT22;9040;51.332;12.406;2022-09-09T04:43:46;16.20;99.90
17831;DHT22;9040;51.332;12.406;2022-09-09T04:46:14;16.30;99.90
17831;DHT22;9040;51.332;12.406;2022-09-09T04:48:42;16.30;99.90
17831;DHT22;9040;51.332;12.406;2022-09-09T04:51:12;16.30;99.90
17831;DHT22;9040;51.332;12.406;2022-09-09T04:53:39;16.40;99.90
17831;DHT22;9040;51.332;12.406;2022-09-09T04:56:08;16.30;99.90
17831;DHT22;9040;51.332;12.406;2022-09-09T04:58:35;16.30;99.90
17831;DHT22;9040;51.332;12.406;2022-09-09T05:01:06;16.30;99.90
17831;DHT22;9040;51.332;12.406;2022-09-09T05:03:35;16.30;99.90
17831;DHT22;9040;51.332;12.406;2022-09-09T05:06:05;16.30;99.90
17831;DHT22;9040;51.332;12.406;2022-09-09T05:08:32;16.30;99.90
17831;DHT22;9040;51.332;12.406;2022-09-09T05:10:59;16.30;99.90
17831;DHT22;9040;51.332;12.406;2022-09-09T05:13:26;16.30;99.90
17831;DHT22;9040;51.332;12.406;2022-09-09T05:15:53;16.30;99.90
17831;DHT22;9040;51.332;12.406;2022-09-09T05:18:20;16.30;99.90
17831;DHT22;9040;51.332;12.406;2022-09-09T05:20:49;16.40;99.90
17831;DHT22;9040;51.332;12.406;2022-09-09T05:23:16;16.50;99.90
17831;DHT22;9040;51.332;12.406;2022-09-09T05:25:43;16.50;99.90
17831;DHT22;9040;51.332;12.406;2022-09-09T05:28:12;16.60;99.90
17831;DHT22;9040;51.332;12.406;2022-09-09T05:30:39;16.70;99.90
17831;DHT22;9040;51.332;12.406;2022-09-09T05:33:06;16.70;99.90
17831;DHT22;9040;51.332;12.406;2022-09-09T05:35:34;16.70;99.90
17831;DHT22;9040;51.332;12.406;2022-09-09T05:38:03;16.70;99.90
17831;DHT22;9040;51.332;12.406;2022-09-09T05:40:30;16.80;99.90
17831;DHT22;9040;51.332;12.406;2022-09-09T05:43:00;16.80;99.90
17831;DHT22;9040;51.332;12.406;2022-09-09T05:45:27;16.80;99.90
17831;DHT22;9040;51.332;12.406;2022-09-09T05:47:54;16.80;99.90
17831;DHT22;9040;51.332;12.406;2022-09-09T05:50:21;16.90;99.90
17831;DHT22;9040;51.332;12.406;2022-09-09T05:52:48;16.90;99.90
17831;DHT22;9040;51.332;12.406;2022-09-09T05:55:16;17.00;99.90
17831;DHT22;9040;51.332;12.406;2022-09-09T05:57:48;17.00;99.90
17831;DHT22;9040;51.332;12.406;2022-09-09T06:00:17;16.90;99.90
17831;DHT22;9040;51.332;12.406;2022-09-09T06:02:50;17.00;99.90
17831;DHT22;9040;51.332;12.406;2022-09-09T06:05:18;17.00;99.90
17831;DHT22;9040;51.332;12.406;2022-09-09T06:07:45;17.10;99.90
17831;DHT22;9040;51.332;12.406;2022-09-09T06:10:11;17.10;99.90
17831;DHT22;9040;51.332;12.406;2022-09-09T06:12:40;17.10;99.90
17831;DHT22;9040;51.332;12.406;2022-09-09T06:15:08;17.20;99.90
17831;DHT22;9040;51.332;12.406;2022-09-09T06:17:35;17.20;99.90
17831;DHT22;9040;51.332;12.406;2022-09-09T06:20:02;17.20;99.90
17831;DHT22;9040;51.332;12.406;2022-09-09T06:22:29;17.30;99.90
17831;DHT22;9040;51.332;12.406;2022-09-09T06:24:56;17.30;99.90
17831;DHT22;9040;51.332;12.406;2022-09-09T06:27:23;17.30;99.90
17831;DHT22;9040;51.332;12.406;2022-09-09T06:29:51;17.40;99.90
17831;DHT22;9040;51.332;12.406;2022-09-09T06:32:18;17.40;99.90
17831;DHT22;9040;51.332;12.406;2022-09-09T06:34:45;17.50;99.90
17831;DHT22;9040;51.332;12.406;2022-09-09T06:37:14;17.50;99.90
17831;DHT22;9040;51.332;12.406;2022-09-09T06:39:41;17.50;99.90
17831;DHT22;9040;51.332;12.406;2022-09-09T06:42:09;17.50;99.90
17831;DHT22;9040;51.332;12.406;2022-09-09T06:44:36;17.50;99.90
17831;DHT22;9040;51.332;12.406;2022-09-09T06:47:04;17.60;99.90
17831;DHT22;9040;51.332;12.406;2022-09-09T06:49:31;17.60;99.90
17831;DHT22;9040;51.332;12.406;2022-09-09T06:51:58;17.60;99.90
17831;DHT22;9040;51.332;12.406;2022-09-09T06:54:25;17.60;99.90
17831;DHT22;9040;51.332;12.406;2022-09-09T06:56:52;17.70;99.90
17831;DHT22;9040;51.332;12.406;2022-09-09T06:59:18;17.80;99.90
17831;DHT22;9040;51.332;12.406;2022-09-09T07:01:45;17.80;99.90
17831;DHT22;9040;51.332;12.406;2022-09-09T07:04:14;17.90;99.90
17831;DHT22;9040;51.332;12.406;2022-09-09T07:06:43;17.90;99.90
17831;DHT22;9040;51.332;12.406;2022-09-09T07:09:13;18.00;99.90
17831;DHT22;9040;51.332;12.406;2022-09-09T07:11:43;18.00;99.90
17831;DHT22;9040;51.332;12.406;2022-09-09T07:14:10;18.10;99.90
17831;DHT22;9040;51.332;12.406;2022-09-09T07:16:39;18.10;99.90
17831;DHT22;9040;51.332;12.406;2022-09-09T07:19:06;18.20;99.90
17831;DHT22;9040;51.332;12.406;2022-09-09T07:21:34;18.20;99.90
17831;DHT22;9040;51.332;12.406;2022-09-09T07:24:02;18.10;99.90
17831;DHT22;9040;51.332;12.406;2022-09-09T07:26:33;18.10;99.90
17831;DHT22;9040;51.332;12.406;2022-09-09T07:29:01;18.10;99.90
17831;DHT22;9040;51.332;12.406;2022-09-09T07:31:30;18.10;99.90
17831;DHT22;9040;51.332;12.406;2022-09-09T07:33:57;18.10;99.90
17831;DHT22;9040;51.332;12.406;2022-09-09T07:36:27;18.10;99.90
17831;DHT22;9040;51.332;12.406;2022-09-09T07:38:57;18.20;99.90
17831;DHT22;9040;51.332;12.406;2022-09-09T07:41:27;18.20;99.90
17831;DHT22;9040;51.332;12.406;2022-09-09T07:43:54;18.20;99.90
17831;DHT22;9040;51.332;12.406;2022-09-09T07:46:22;18.30;99.90
17831;DHT22;9040;51.332;12.406;2022-09-09T07:48:51;18.30;99.90
17831;DHT22;9040;51.332;12.406;2022-09-09T07:51:20;18.40;99.90
17831;DHT22;9040;51.332;12.406;2022-09-09T07:53:51;18.40;99.90
17831;DHT22;9040;51.332;12.406;2022-09-09T07:56:20;18.40;99.90
17831;DHT22;9040;51.332;12.406;2022-09-09T07:58:49;18.40;99.90
17831;DHT22;9040;51.332;12.406;2022-09-09T08:01:18;18.50;99.90
17831;DHT22;9040;51.332;12.406;2022-09-09T08:03:45;18.50;99.90
17831;DHT22;9040;51.332;12.406;2022-09-09T08:06:13;18.60;99.90
17831;DHT22;9040;51.332;12.406;2022-09-09T08:08:40;18.60;99.90
17831;DHT22;9040;51.332;12.406;2022-09-09T08:11:12;18.80;99.90
17831;DHT22;9040;51.332;12.406;2022-09-09T08:13:43;18.80;99.90
17831;DHT22;9040;51.332;12.406;2022-09-09T08:16:12;18.90;99.90
17831;DHT22;9040;51.332;12.406;2022-09-09T08:18:39;19.20;99.90
17831;DHT22;9040;51.332;12.406;2022-09-09T08:21:08;19.30;99.90
17831;DHT22;9040;51.332;12.406;2022-09-09T08:23:37;19.40;99.90
17831;DHT22;9040;51.332;12.406;2022-09-09T08:26:06;19.40;99.90
17831;DHT22;9040;51.332;12.406;2022-09-09T08:28:34;19.50;99.90
17831;DHT22;9040;51.332;12.406;2022-09-09T08:31:19;19.40;99.90
17831;DHT22;9040;51.332;12.406;2022-09-09T08:33:46;19.30;99.90
17831;DHT22;9040;51.332;12.406;2022-09-09T08:36:15;19.20;99.90
17831;DHT22;9040;51.332;12.406;2022-09-09T08:38:43;19.20;99.90
17831;DHT22;9040;51.332;12.406;2022-09-09T08:41:24;19.20;99.90
17831;DHT22;9040;51.332;12.406;2022-09-09T08:44:02;19.20;99.90
17831;DHT22;9040;51.332;12.406;2022-09-09T08:46:38;19.20;99.90
17831;DHT22;9040;51.332;12.406;2022-09-09T08:49:17;19.30;99.90
17831;DHT22;9040;51.332;12.406;2022-09-09T08:51:48;19.30;99.90
17831;DHT22;9040;51.332;12.406;2022-09-09T08:54:16;19.30;99.90
17831;DHT22;9040;51.332;12.406;2022-09-09T08:56:44;19.40;99.90
17831;DHT22;9040;51.332;12.406;2022-09-09T08:59:14;19.30;99.90
17831;DHT22;9040;51.332;12.406;2022-09-09T09:02:04;19.40;99.90
17831;DHT22;9040;51.332;12.406;2022-09-09T09:04:54;19.30;99.90
17831;DHT22;9040;51.332;12.406;2022-09-09T09:07:31;19.40;99.90
17831;DHT22;9040;51.332;12.406;2022-09-09T09:10:08;19.50;99.90
17831;DHT22;9040;51.332;12.406;2022-09-09T09:12:40;19.50;99.90
17831;DHT22;9040;51.332;12.406;2022-09-09T09:15:13;19.60;99.90
17831;DHT22;9040;51.332;12.406;2022-09-09T09:17:44;19.60;99.90
17831;DHT22;9040;51.332;12.406;2022-09-09T09:20:13;19.70;99.90
17831;DHT22;9040;51.332;12.406;2022-09-09T09:22:47;19.80;99.90
17831;DHT22;9040;51.332;12.406;2022-09-09T09:25:17;19.90;99.90
17831;DHT22;9040;51.332;12.406;2022-09-09T09:27:49;20.10;99.90
17831;DHT22;9040;51.332;12.406;2022-09-09T09:30:20;20.20;99.90
17831;DHT22;9040;51.332;12.406;2022-09-09T09:32:54;20.20;99.90
17831;DHT22;9040;51.332;12.406;2022-09-09T09:35:22;20.30;99.90
17831;DHT22;9040;51.332;12.406;2022-09-09T09:37:51;20.40;99.90
17831;DHT22;9040;51.332;12.406;2022-09-09T09:40:20;20.70;99.90
17831;DHT22;9040;51.332;12.406;2022-09-09T09:42:49;20.80;99.90
17831;DHT22;9040;51.332;12.406;2022-09-09T09:45:26;20.90;99.90
17831;DHT22;9040;51.332;12.406;2022-09-09T09:47:59;21.00;99.90
17831;DHT22;9040;51.332;12.406;2022-09-09T09:50:27;21.00;99.90
17831;DHT22;9040;51.332;12.406;2022-09-09T09:52:56;21.20;99.90
17831;DHT22;9040;51.332;12.406;2022-09-09T09:55:24;21.30;99.90
17831;DHT22;9040;51.332;12.406;2022-09-09T09:57:53;21.20;99.90
17831;DHT22;9040;51.332;12.406;2022-09-09T10:00:22;21.30;99.90
17831;DHT22;9040;51.332;12.406;2022-09-09T10:02:49;21.40;99.90
17831;DHT22;9040;51.332;12.406;2022-09-09T10:05:21;21.40;99.90
17831;DHT22;9040;51.332;12.406;2022-09-09T10:08:01;21.40;99.90
17831;DHT22;9040;51.332;12.406;2022-09-09T10:10:46;21.50;99.90
17831;DHT22;9040;51.332;12.406;2022-09-09T10:13:19;21.60;99.90
17831;DHT22;9040;51.332;12.406;2022-09-09T10:15:58;21.60;99.90
17831;DHT22;9040;51.332;12.406;2022-09-09T10:18:49;21.50;99.90
17831;DHT22;9040;51.332;12.406;2022-09-09T10:21:38;21.40;99.90
17831;DHT22;9040;51.332;12.406;2022-09-09T10:24:23;21.40;99.90
17831;DHT22;9040;51.332;12.406;2022-09-09T10:27:02;21.30;99.90
17831;DHT22;9040;51.332;12.406;2022-09-09T10:29:40;21.30;99.90
17831;DHT22;9040;51.332;12.406;2022-09-09T10:32:33;21.30;99.90
17831;DHT22;9040;51.332;12.406;2022-09-09T10:35:08;21.30;99.90
17831;DHT22;9040;51.332;12.406;2022-09-09T10:38:12;21.30;99.90
17831;DHT22;9040;51.332;12.406;2022-09-09T10:40:46;21.40;99.90
17831;DHT22;9040;51.332;12.406;2022-09-09T10:43:26;21.50;99.90
17831;DHT22;9040;51.332;12.406;2022-09-09T10:46:02;21.60;99.90
17831;DHT22;9040;51.332;12.406;2022-09-09T10:48:35;21.60;99.90
17831;DHT22;9040;51.332;12.406;2022-09-09T10:51:22;21.60;99.90
17831;DHT22;9040;51.332;12.406;2022-09-09T10:54:14;21.60;99.90
17831;DHT22;9040;51.332;12.406;2022-09-09T10:56:51;21.60;99.90
17831;DHT22;9040;51.332;12.406;2022-09-09T10:59:25;21.60;99.90
17831;DHT22;9040;51.332;12.406;2022-09-09T11:01:57;21.60;99.90
17831;DHT22;9040;51.332;12.406;2022-09-09T11:04:28;21.60;99.90
17831;DHT22;9040;51.332;12.406;2022-09-09T11:07:01;21.70;99.90
17831;DHT22;9040;51.332;12.406;2022-09-09T11:09:37;21.80;99.90
17831;DHT22;9040;51.332;12.406;2022-09-09T11:12:10;21.70;99.90
17831;DHT22;9040;51.332;12.406;2022-09-09T11:14:43;21.70;99.90
17831;DHT22;9040;51.332;12.406;2022-09-09T11:17:15;21.80;99.90
17831;DHT22;9040;51.332;12.406;2022-09-09T11:19:44;21.80;99.90
17831;DHT22;9040;51.332;12.406;2022-09-09T11:22:22;21.90;99.90
17831;DHT22;9040;51.332;12.406;2022-09-09T11:24:56;22.00;99.90
17831;DHT22;9040;51.332;12.406;2022-09-09T11:27:27;22.00;99.90
17831;DHT22;9040;51.332;12.406;2022-09-09T11:30:17;22.00;99.90
17831;DHT22;9040;51.332;12.406;2022-09-09T11:36:35;22.10;99.90
17831;DHT22;9040;51.332;12.406;2022-09-09T11:39:22;22.10;99.90
17831;DHT22;9040;51.332;12.406;2022-09-09T11:42:05;22.10;99.90
17831;DHT22;9040;51.332;12.406;2022-09-09T11:44:33;22.20;99.90
17831;DHT22;9040;51.332;12.406;2022-09-09T11:47:00;22.30;99.90
17831;DHT22;9040;51.332;12.406;2022-09-09T11:49:29;22.30;99.90
17831;DHT22;9040;51.332;12.406;2022-09-09T11:51:57;22.30;99.90
17831;DHT22;9040;51.332;12.406;2022-09-09T11:54:29;22.20;99.90
17831;DHT22;9040;51.332;12.406;2022-09-09T11:56:59;22.10;99.90
17831;DHT22;9040;51.332;12.406;2022-09-09T11:59:27;22.10;99.90
17831;DHT22;9040;51.332;12.406;2022-09-09T12:01:58;22.10;99.90
17831;DHT22;9040;51.332;12.406;2022-09-09T12:04:32;22.30;99.90
17831;DHT22;9040;51.332;12.406;2022-09-09T12:07:03;22.50;99.90
17831;DHT22;9040;51.332;12.406;2022-09-09T12:09:49;22.80;99.90
17831;DHT22;9040;51.332;12.406;2022-09-09T12:12:31;22.80;99.90
17831;DHT22;9040;51.332;12.406;2022-09-09T12:15:18;23.20;99.90
17831;DHT22;9040;51.332;12.406;2022-09-09T12:17:47;23.30;99.90
17831;DHT22;9040;51.332;12.406;2022-09-09T12:20:18;23.20;99.90
17831;DHT22;9040;51.332;12.406;2022-09-09T12:23:06;23.10;99.90
17831;DHT22;9040;51.332;12.406;2022-09-09T12:25:58;23.00;99.90
17831;DHT22;9040;51.332;12.406;2022-09-09T12:28:44;22.90;99.90
17831;DHT22;9040;51.332;12.406;2022-09-09T12:31:17;22.90;99.90
17831;DHT22;9040;51.332;12.406;2022-09-09T12:33:47;22.90;99.90
17831;DHT22;9040;51.332;12.406;2022-09-09T12:36:15;22.80;99.90
17831;DHT22;9040;51.332;12.406;2022-09-09T12:38:43;22.70;99.90
17831;DHT22;9040;51.332;12.406;2022-09-09T12:41:19;23.50;99.90
17831;DHT22;9040;51.332;12.406;2022-09-09T12:43:48;24.90;99.90
17831;DHT22;9040;51.332;12.406;2022-09-09T12:46:25;26.00;99.90
17831;DHT22;9040;51.332;12.406;2022-09-09T12:48:55;27.00;99.90
17831;DHT22;9040;51.332;12.406;2022-09-09T12:51:25;27.10;99.90
17831;DHT22;9040;51.332;12.406;2022-09-09T12:53:53;27.50;99.90
17831;DHT22;9040;51.332;12.406;2022-09-09T12:56:22;28.10;99.90
17831;DHT22;9040;51.332;12.406;2022-09-09T12:58:55;28.70;99.90
17831;DHT22;9040;51.332;12.406;2022-09-09T13:01:24;29.60;99.90
17831;DHT22;9040;51.332;12.406;2022-09-09T13:03:51;30.10;99.10
17831;DHT22;9040;51.332;12.406;2022-09-09T13:06:23;30.00;95.80
17831;DHT22;9040;51.332;12.406;2022-09-09T13:08:50;30.10;95.00
17831;DHT22;9040;51.332;12.406;2022-09-09T13:11:20;30.20;94.80
17831;DHT22;9040;51.332;12.406;2022-09-09T13:13:55;29.90;93.60
17831;DHT22;9040;51.332;12.406;2022-09-09T13:16:26;29.50;92.90
17831;DHT22;9040;51.332;12.406;2022-09-09T13:18:57;29.30;93.00
17831;DHT22;9040;51.332;12.406;2022-09-09T13:21:35;28.60;93.10
17831;DHT22;9040;51.332;12.406;2022-09-09T13:24:04;28.00;93.90
17831;DHT22;9040;51.332;12.406;2022-09-09T13:26:33;27.00;94.60
17831;DHT22;9040;51.332;12.406;2022-09-09T13:29:17;26.10;96.50
17831;DHT22;9040;51.332;12.406;2022-09-09T13:31:45;25.30;99.10
17831;DHT22;9040;51.332;12.406;2022-09-09T13:34:12;24.80;99.90
17831;DHT22;9040;51.332;12.406;2022-09-09T13:36:40;24.40;99.90
17831;DHT22;9040;51.332;12.406;2022-09-09T13:39:15;24.10;99.90
17831;DHT22;9040;51.332;12.406;2022-09-09T13:41:44;23.90;99.90
17831;DHT22;9040;51.332;12.406;2022-09-09T13:44:21;23.80;99.90
17831;DHT22;9040;51.332;12.406;2022-09-09T13:47:00;23.70;99.90
17831;DHT22;9040;51.332;12.406;2022-09-09T13:49:29;23.60;99.90
17831;DHT22;9040;51.332;12.406;2022-09-09T13:52:04;23.60;99.90
17831;DHT22;9040;51.332;12.406;2022-09-09T13:54:33;23.40;99.90
17831;DHT22;9040;51.332;12.406;2022-09-09T13:57:00;23.30;99.90
17831;DHT22;9040;51.332;12.406;2022-09-09T13:59:29;23.30;99.90
17831;DHT22;9040;51.332;12.406;2022-09-09T14:01:57;23.10;99.90
17831;DHT22;9040;51.332;12.406;2022-09-09T14:04:24;22.70;99.90
17831;DHT22;9040;51.332;12.406;2022-09-09T14:06:51;22.00;99.90
17831;DHT22;9040;51.332;12.406;2022-09-09T14:09:19;21.30;99.90
17831;DHT22;9040;51.332;12.406;2022-09-09T14:11:46;20.70;99.90
17831;DHT22;9040;51.332;12.406;2022-09-09T14:14:13;20.30;99.90
17831;DHT22;9040;51.332;12.406;2022-09-09T14:16:41;20.00;99.90
17831;DHT22;9040;51.332;12.406;2022-09-09T14:19:08;19.90;99.90
17831;DHT22;9040;51.332;12.406;2022-09-09T14:21:35;19.90;99.90
17831;DHT22;9040;51.332;12.406;2022-09-09T14:24:02;20.00;99.90
17831;DHT22;9040;51.332;12.406;2022-09-09T14:26:29;20.10;99.90
17831;DHT22;9040;51.332;12.406;2022-09-09T14:28:56;20.20;99.90
17831;DHT22;9040;51.332;12.406;2022-09-09T14:31:24;20.30;99.90
17831;DHT22;9040;51.332;12.406;2022-09-09T14:33:53;20.40;99.90
17831;DHT22;9040;51.332;12.406;2022-09-09T14:36:20;20.50;99.90
17831;DHT22;9040;51.332;12.406;2022-09-09T14:38:48;20.50;99.90
17831;DHT22;9040;51.332;12.406;2022-09-09T14:41:17;20.60;99.90
17831;DHT22;9040;51.332;12.406;2022-09-09T14:43:44;20.70;99.90
17831;DHT22;9040;51.332;12.406;2022-09-09T14:46:12;20.80;99.90
17831;DHT22;9040;51.332;12.406;2022-09-09T14:48:40;20.80;99.90
17831;DHT22;9040;51.332;12.406;2022-09-09T14:51:10;20.80;99.90
17831;DHT22;9040;51.332;12.406;2022-09-09T14:53:38;20.90;99.90
17831;DHT22;9040;51.332;12.406;2022-09-09T14:56:06;21.00;99.90
17831;DHT22;9040;51.332;12.406;2022-09-09T14:58:34;21.10;99.90
17831;DHT22;9040;51.332;12.406;2022-09-09T15:01:05;21.30;99.90
17831;DHT22;9040;51.332;12.406;2022-09-09T15:03:32;21.50;99.90
17831;DHT22;9040;51.332;12.406;2022-09-09T15:06:05;22.00;99.90
17831;DHT22;9040;51.332;12.406;2022-09-09T15:08:35;22.80;99.90
17831;DHT22;9040;51.332;12.406;2022-09-09T15:11:03;23.90;99.90
17831;DHT22;9040;51.332;12.406;2022-09-09T15:13:32;24.70;99.90
17831;DHT22;9040;51.332;12.406;2022-09-09T15:16:04;25.40;99.90
17831;DHT22;9040;51.332;12.406;2022-09-09T15:18:31;25.90;99.90
17831;DHT22;9040;51.332;12.406;2022-09-09T15:20:58;26.20;99.90
17831;DHT22;9040;51.332;12.406;2022-09-09T15:23:27;26.40;99.90
17831;DHT22;9040;51.332;12.406;2022-09-09T15:25:55;26.60;99.90
17831;DHT22;9040;51.332;12.406;2022-09-09T15:28:22;26.60;99.90
17831;DHT22;9040;51.332;12.406;2022-09-09T15:30:50;26.60;99.90
17831;DHT22;9040;51.332;12.406;2022-09-09T15:33:18;26.30;99.90
17831;DHT22;9040;51.332;12.406;2022-09-09T15:35:45;26.10;99.90
17831;DHT22;9040;51.332;12.406;2022-09-09T15:38:12;26.00;99.90
17831;DHT22;9040;51.332;12.406;2022-09-09T15:40:41;26.00;99.90
17831;DHT22;9040;51.332;12.406;2022-09-09T15:43:10;26.00;99.90
17831;DHT22;9040;51.332;12.406;2022-09-09T15:45:38;26.60;99.90
17831;DHT22;9040;51.332;12.406;2022-09-09T15:48:05;27.40;99.90
17831;DHT22;9040;51.332;12.406;2022-09-09T15:50:32;28.10;99.90
17831;DHT22;9040;51.332;12.406;2022-09-09T15:52:59;28.60;99.90
17831;DHT22;9040;51.332;12.406;2022-09-09T15:55:26;29.10;99.90
17831;DHT22;9040;51.332;12.406;2022-09-09T15:57:53;29.40;99.90